Hg 306 Tobis — OUPS — position and weather

sailwx.info

Track history (hours):
 
Tides and Currents Weather Stations Pressure Air Temp Water Temp Dewpoint Dewpoint Depression Visibility Wind Speed Wind Dir Waves Ship Positions

Hg 306 Tobis

Last reported at 2015-Apr-30 21:17 UTC. Time now 2015-May-04 07:00 UTC.
Position N 58°17' E 005°15'.

Length 40 m; draft 6.5 m.

Type: Fishing. MMSI: 219013001.

Date/timePositionNaut miles runAvg speedWind from/ knotsBaromVisibWave heightAir tempDewpointWater temp
2015-Apr-30 21:17N 58°17' E 005°15'910.9
2015-Apr-30 20:29N 58°12' E 005°29'1010.7
2015-Apr-30 19:32N 58°07' E 005°45'1111.0
2015-Apr-30 18:31N 58°01' E 006°03'  
2015-Apr-23 14:33N 58°03' E 006°25'10 9.6
2015-Apr-23 13:33N 58°10' E 006°11'10 9.8
2015-Apr-23 12:33N 58°16' E 005°57'1010.1
2015-Apr-23 11:33N 58°23' E 005°43'3010.0
2015-Apr-23 08:32N 58°43' E 004°60'10 9.7
2015-Apr-23 07:31N 58°50' E 004°46'  
Track history (hours):
 
Tides and Currents Weather Stations Pressure Air Temp Water Temp Dewpoint Dewpoint Depression Visibility Wind Speed Wind Dir Waves Ship Positions

Hg 306 Tobis

Last reported at 2015-Apr-30 21:17 UTC. Time now 2015-May-04 07:00 UTC.
Position N 58°17' E 005°15'.

Length 40 m; draft 6.5 m.

Type: Fishing. MMSI: 219013001.

Date/timePositionNaut miles runAvg speedWind from/ knotsBaromVisibWave heightAir tempDewpointWater temp
2015-Apr-30 21:17N 58°17' E 005°15'910.9
2015-Apr-30 20:29N 58°12' E 005°29'1010.7
2015-Apr-30 19:32N 58°07' E 005°45'1111.0
2015-Apr-30 18:31N 58°01' E 006°03'  
2015-Apr-23 14:33N 58°03' E 006°25'10 9.6
2015-Apr-23 13:33N 58°10' E 006°11'10 9.8
2015-Apr-23 12:33N 58°16' E 005°57'1010.1
2015-Apr-23 11:33N 58°23' E 005°43'3010.0
2015-Apr-23 08:32N 58°43' E 004°60'10 9.7
2015-Apr-23 07:31N 58°50' E 004°46'  

Dump ship's entire track history